Time;durP1;ratioP1;P1;durP2;ratioP2;P2;SDS_P1;SDS_P2;PMS_P1;PMS_P2;Temp;Humidity;BMP_temperature;BMP_pressure;BME280_temperature;BME280_humidity;BME280_pressure;Samples;Min_cycle;Max_cycle;Signal;HPM_P1;HPM_P2
2024/01/15 00:01:42;;;;;;;52.90;49.97;;;;;;;;;;5032887;28;20038;-67
2024/01/15 00:04:07;;;;;;;47.80;44.65;;;;;;;;;;5031258;28;20057;-67
2024/01/15 00:06:33;;;;;;;49.60;46.67;;;;;;;;;;5031673;28;20061;-71
2024/01/15 00:08:58;;;;;;;51.10;47.88;;;;;;;;;;5038915;28;20115;-71
2024/01/15 00:11:24;;;;;;;46.85;44.05;;;;;;;;;;5037918;28;20362;-71
2024/01/15 00:13:49;;;;;;;45.97;43.53;;;;;;;;;;5034626;28;20449;-67
2024/01/15 00:16:14;;;;;;;47.47;44.53;;;;;;;;;;5038064;28;20041;-67
2024/01/15 00:18:40;;;;;;;47.17;44.13;;;;;;;;;;5034587;28;20040;-71
2024/01/15 00:21:05;;;;;;;45.42;43.03;;;;;;;;;;5031297;28;20025;-71
2024/01/15 00:23:30;;;;;;;43.78;41.22;;;;;;;;;;5034885;28;20033;-71
2024/01/15 00:25:55;;;;;;;47.28;44.63;;;;;;;;;;5035237;28;20033;-72
2024/01/15 00:28:21;;;;;;;48.25;45.47;;;;;;;;;;5033307;28;20045;-72
2024/01/15 00:30:46;;;;;;;45.28;42.53;;;;;;;;;;5034182;28;20040;-71
2024/01/15 00:33:12;;;;;;;45.15;42.60;;;;;;;;;;5032399;28;20061;-72
2024/01/15 00:35:37;;;;;;;42.33;39.90;;;;;;;;;;5032530;28;20075;-67
2024/01/15 00:38:03;;;;;;;39.17;37.05;;;;;;;;;;5026459;28;20029;-68
2024/01/15 00:40:28;;;;;;;44.58;41.63;;;;;;;;;;5032160;28;20686;-68
2024/01/15 00:42:53;;;;;;;43.30;40.83;;;;;;;;;;5035254;28;20041;-72
2024/01/15 00:45:19;;;;;;;41.35;39.03;;;;;;;;;;5032756;28;20374;-71
2024/01/15 00:47:44;;;;;;;42.20;39.40;;;;;;;;;;5033642;28;20061;-67
2024/01/15 00:50:09;;;;;;;38.58;36.53;;;;;;;;;;5031920;28;20061;-67
2024/01/15 00:52:35;;;;;;;40.47;38.10;;;;;;;;;;5033998;28;20136;-67
2024/01/15 00:55:00;;;;;;;45.20;42.03;;;;;;;;;;5032157;28;20064;-67
2024/01/15 00:57:25;;;;;;;40.47;38.10;;;;;;;;;;5033350;28;20091;-67
2024/01/15 00:59:51;;;;;;;39.33;36.95;;;;;;;;;;5029477;28;20037;-73
2024/01/15 01:02:16;;;;;;;40.40;38.13;;;;;;;;;;5033863;28;20098;-73
2024/01/15 01:04:41;;;;;;;39.45;37.17;;;;;;;;;;5033553;28;20459;-67
2024/01/15 01:07:07;;;;;;;42.80;40.45;;;;;;;;;;5032553;28;20651;-73
2024/01/15 01:09:32;;;;;;;44.80;42.30;;;;;;;;;;5032746;28;20049;-67
2024/01/15 01:11:58;;;;;;;44.55;41.63;;;;;;;;;;5034420;28;20033;-72
2024/01/15 01:14:23;;;;;;;42.88;40.33;;;;;;;;;;5031309;28;20045;-67
2024/01/15 01:16:48;;;;;;;44.70;42.33;;;;;;;;;;5034223;28;20029;-67
2024/01/15 01:19:14;;;;;;;45.28;42.88;;;;;;;;;;5036065;28;20627;-67
2024/01/15 01:21:39;;;;;;;47.65;43.13;;;;;;;;;;5030736;28;20375;-73
2024/01/15 01:24:05;;;;;;;46.42;43.88;;;;;;;;;;5031701;28;20025;-67
2024/01/15 01:26:31;;;;;;;47.15;44.42;;;;;;;;;;5030429;28;20467;-72
2024/01/15 01:28:56;;;;;;;49.05;46.08;;;;;;;;;;5033374;28;20119;-67
2024/01/15 01:31:23;;;;;;;52.33;49.08;;;;;;;;;;5031566;28;20523;-67
2024/01/15 01:33:49;;;;;;;51.25;48.30;;;;;;;;;;5033026;28;20417;-73
2024/01/15 01:36:14;;;;;;;49.47;46.95;;;;;;;;;;5032697;28;20033;-67
2024/01/15 01:38:40;;;;;;;48.85;46.15;;;;;;;;;;5029569;28;20047;-67
2024/01/15 01:41:06;;;;;;;49.33;46.42;;;;;;;;;;5033552;28;20040;-67
2024/01/15 01:43:31;;;;;;;53.55;50.65;;;;;;;;;;5030482;28;20045;-67
2024/01/15 01:46:00;;;;;;;51.58;48.42;;;;;;;;;;5033397;28;20033;-72
2024/01/15 01:48:26;;;;;;;50.20;47.50;;;;;;;;;;5032075;28;20045;-67
2024/01/15 01:50:54;;;;;;;50.38;47.42;;;;;;;;;;5029807;28;20025;-67
2024/01/15 01:53:20;;;;;;;49.97;47.08;;;;;;;;;;5031490;28;20059;-67
2024/01/15 01:55:47;;;;;;;53.40;50.40;;;;;;;;;;5031417;28;20029;-67
2024/01/15 01:58:13;;;;;;;51.47;48.58;;;;;;;;;;5030963;28;20491;-68
2024/01/15 02:00:38;;;;;;;54.85;51.72;;;;;;;;;;5033083;28;20040;-67
2024/01/15 02:03:04;;;;;;;55.65;52.15;;;;;;;;;;5032469;28;20043;-67
2024/01/15 02:05:30;;;;;;;52.70;49.80;;;;;;;;;;5030338;28;20044;-67
2024/01/15 02:07:56;;;;;;;54.97;51.72;;;;;;;;;;5033186;28;20025;-67
2024/01/15 02:10:21;;;;;;;49.50;46.88;;;;;;;;;;5029624;28;20921;-68
2024/01/15 02:12:48;;;;;;;54.38;51.47;;;;;;;;;;5033395;28;20506;-67
2024/01/15 02:15:14;;;;;;;52.78;49.60;;;;;;;;;;5033354;28;20033;-67
2024/01/15 02:17:59;;;;;;;52.70;49.15;;;;;;;;;;5032534;28;20601;-67
2024/01/15 02:20:25;;;;;;;53.80;50.90;;;;;;;;;;5028961;28;20041;-67
2024/01/15 02:22:51;;;;;;;53.45;50.50;;;;;;;;;;5034389;28;20034;-68
2024/01/15 02:25:16;;;;;;;53.38;50.38;;;;;;;;;;5033227;28;20041;-67
2024/01/15 02:27:43;;;;;;;53.83;50.63;;;;;;;;;;5033653;28;20040;-67
2024/01/15 02:30:10;;;;;;;55.33;52.30;;;;;;;;;;5030686;28;20558;-67
2024/01/15 02:32:36;;;;;;;53.67;50.80;;;;;;;;;;5035810;28;20038;-67
2024/01/15 02:35:01;;;;;;;54.15;51.15;;;;;;;;;;5032286;28;20056;-67
2024/01/15 02:37:26;;;;;;;56.50;53.50;;;;;;;;;;5035070;28;20060;-67
2024/01/15 02:39:52;;;;;;;48.90;46.25;;;;;;;;;;5033909;28;20048;-67
2024/01/15 02:42:17;;;;;;;52.25;49.15;;;;;;;;;;5035409;28;20029;-67
2024/01/15 02:44:43;;;;;;;53.05;50.15;;;;;;;;;;5030679;28;20616;-73
2024/01/15 02:47:08;;;;;;;54.70;51.83;;;;;;;;;;5033804;28;20558;-72
2024/01/15 02:49:34;;;;;;;58.90;53.92;;;;;;;;;;5032884;28;20474;-72
2024/01/15 02:51:59;;;;;;;53.53;50.17;;;;;;;;;;5030437;28;20026;-72
2024/01/15 02:54:24;;;;;;;60.92;57.55;;;;;;;;;;5032467;28;20036;-72
2024/01/15 02:56:50;;;;;;;55.33;51.65;;;;;;;;;;5031119;28;20038;-72
2024/01/15 02:59:15;;;;;;;55.08;52.10;;;;;;;;;;5032874;28;20652;-72
2024/01/15 03:01:40;;;;;;;53.45;50.60;;;;;;;;;;5031470;28;20481;-73
2024/01/15 03:04:05;;;;;;;54.47;51.53;;;;;;;;;;5033868;28;20094;-72
2024/01/15 03:06:31;;;;;;;58.72;55.50;;;;;;;;;;5033108;28;20029;-74
2024/01/15 03:08:56;;;;;;;54.78;51.47;;;;;;;;;;5035430;28;20025;-73
2024/01/15 03:11:21;;;;;;;56.38;53.13;;;;;;;;;;5038237;28;20090;-73
2024/01/15 03:13:47;;;;;;;52.95;50.13;;;;;;;;;;5031897;28;20402;-73
2024/01/15 03:16:12;;;;;;;51.78;49.13;;;;;;;;;;5036954;28;20467;-73
2024/01/15 03:18:37;;;;;;;55.70;52.40;;;;;;;;;;5037366;28;20037;-73
2024/01/15 03:21:04;;;;;;;52.35;49.40;;;;;;;;;;5035323;28;20057;-73
2024/01/15 03:23:29;;;;;;;54.08;51.20;;;;;;;;;;5032431;28;20067;-72
2024/01/15 03:25:55;;;;;;;52.08;49.03;;;;;;;;;;5034767;28;20033;-73
2024/01/15 03:28:20;;;;;;;52.28;49.50;;;;;;;;;;5035794;28;20111;-73
2024/01/15 03:30:45;;;;;;;49.13;46.33;;;;;;;;;;5036405;28;20040;-72
2024/01/15 03:33:10;;;;;;;46.20;43.30;;;;;;;;;;5035295;28;20052;-73
2024/01/15 03:35:36;;;;;;;49.13;46.42;;;;;;;;;;5036792;28;20071;-74
2024/01/15 03:38:01;;;;;;;46.80;44.25;;;;;;;;;;5034038;28;20129;-73
2024/01/15 03:40:26;;;;;;;47.17;44.58;;;;;;;;;;5034565;28;20037;-73
2024/01/15 03:42:52;;;;;;;50.47;47.47;;;;;;;;;;5034376;28;20041;-73
2024/01/15 03:45:17;;;;;;;51.75;48.95;;;;;;;;;;5035023;28;20052;-73
2024/01/15 03:47:42;;;;;;;51.30;48.38;;;;;;;;;;5035811;28;20045;-73
2024/01/15 03:50:08;;;;;;;50.90;47.72;;;;;;;;;;5033256;28;20182;-73
2024/01/15 03:52:33;;;;;;;48.38;45.78;;;;;;;;;;5036467;28;20089;-73
2024/01/15 03:54:59;;;;;;;50.50;47.63;;;;;;;;;;5034902;28;20518;-73
2024/01/15 03:57:24;;;;;;;48.42;45.63;;;;;;;;;;5038066;28;20048;-74
2024/01/15 03:59:49;;;;;;;48.67;45.97;;;;;;;;;;5032436;28;20040;-73
2024/01/15 04:02:15;;;;;;;53.95;51.05;;;;;;;;;;5037663;28;20036;-73
2024/01/15 04:04:42;;;;;;;51.67;48.67;;;;;;;;;;5033960;28;20034;-73
2024/01/15 04:07:08;;;;;;;52.55;49.55;;;;;;;;;;5035183;28;20037;-73
2024/01/15 04:09:34;;;;;;;47.50;44.90;;;;;;;;;;5035823;28;20082;-73
2024/01/15 04:11:59;;;;;;;49.35;46.63;;;;;;;;;;5034304;28;20460;-73
2024/01/15 04:14:24;;;;;;;53.05;49.30;;;;;;;;;;5031402;28;20043;-73
2024/01/15 04:16:49;;;;;;;49.92;46.35;;;;;;;;;;5032482;28;20564;-73
2024/01/15 04:19:15;;;;;;;52.42;49.05;;;;;;;;;;5035119;28;20470;-72
2024/01/15 04:21:41;;;;;;;52.20;48.65;;;;;;;;;;5032966;28;20037;-72
2024/01/15 04:24:06;;;;;;;51.33;48.45;;;;;;;;;;5033534;28;20175;-73
2024/01/15 04:26:31;;;;;;;52.20;49.47;;;;;;;;;;5034872;28;20117;-72
2024/01/15 04:28:58;;;;;;;52.63;49.60;;;;;;;;;;5037894;28;20044;-73
2024/01/15 04:31:25;;;;;;;55.60;52.30;;;;;;;;;;5033548;28;20639;-73
2024/01/15 04:33:50;;;;;;;54.05;50.78;;;;;;;;;;5031157;28;20030;-73
2024/01/15 04:36:16;;;;;;;56.88;53.25;;;;;;;;;;5036854;28;20037;-72
2024/01/15 04:38:41;;;;;;;55.40;52.45;;;;;;;;;;5037214;28;20643;-72
2024/01/15 04:41:11;;;;;;;59.17;55.72;;;;;;;;;;5032499;28;20040;-73
2024/01/15 04:43:36;;;;;;;55.35;52.40;;;;;;;;;;5031829;28;20116;-73
2024/01/15 04:46:03;;;;;;;55.10;52.15;;;;;;;;;;5036087;28;20624;-73
2024/01/15 04:48:28;;;;;;;57.22;53.90;;;;;;;;;;5034659;28;20116;-73
2024/01/15 04:50:53;;;;;;;54.42;51.28;;;;;;;;;;5033155;28;20170;-73
2024/01/15 04:53:19;;;;;;;57.03;53.83;;;;;;;;;;5034576;28;20128;-73
2024/01/15 04:55:44;;;;;;;58.67;55.42;;;;;;;;;;5034117;28;20061;-73
2024/01/15 04:58:09;;;;;;;55.25;52.08;;;;;;;;;;5032450;28;20179;-72
2024/01/15 05:00:34;;;;;;;57.42;54.13;;;;;;;;;;5033784;28;20069;-73
2024/01/15 05:03:00;;;;;;;56.28;53.17;;;;;;;;;;5034756;28;20045;-73
2024/01/15 05:05:25;;;;;;;55.63;52.53;;;;;;;;;;5030638;28;20040;-73
2024/01/15 05:07:51;;;;;;;56.42;53.50;;;;;;;;;;5029469;28;20034;-73
2024/01/15 05:10:16;;;;;;;56.30;53.35;;;;;;;;;;5033060;28;20340;-74
2024/01/15 05:12:41;;;;;;;55.90;52.90;;;;;;;;;;5026509;28;20037;-74
2024/01/15 05:15:07;;;;;;;54.78;51.88;;;;;;;;;;5031443;28;20060;-73
2024/01/15 05:17:32;;;;;;;55.95;53.05;;;;;;;;;;5033941;28;20098;-73
2024/01/15 05:19:58;;;;;;;54.40;51.50;;;;;;;;;;5033479;28;20179;-73
2024/01/15 05:22:25;;;;;;;58.22;55.13;;;;;;;;;;5034517;28;20034;-73
2024/01/15 05:24:50;;;;;;;55.38;52.33;;;;;;;;;;5031413;28;20048;-74
2024/01/15 05:27:15;;;;;;;59.70;56.50;;;;;;;;;;5036750;28;20471;-73
2024/01/15 05:29:41;;;;;;;61.55;57.40;;;;;;;;;;5030467;28;20041;-73
2024/01/15 05:32:06;;;;;;;63.83;59.67;;;;;;;;;;5030080;28;20033;-73
2024/01/15 05:34:31;;;;;;;64.53;60.05;;;;;;;;;;5032142;28;20048;-73
2024/01/15 05:36:57;;;;;;;60.75;57.30;;;;;;;;;;5030155;28;20052;-74
2024/01/15 05:39:22;;;;;;;63.40;59.60;;;;;;;;;;5036015;28;20133;-73
2024/01/15 05:41:47;;;;;;;59.75;56.15;;;;;;;;;;5032183;28;20104;-74
2024/01/15 05:44:13;;;;;;;59.83;56.25;;;;;;;;;;5030405;28;20072;-73
2024/01/15 05:46:38;;;;;;;57.25;54.25;;;;;;;;;;5031550;28;20041;-72
2024/01/15 05:49:03;;;;;;;59.50;54.50;;;;;;;;;;5029025;28;20049;-73
2024/01/15 05:51:29;;;;;;;54.03;51.00;;;;;;;;;;5032911;28;20025;-74
2024/01/15 05:53:54;;;;;;;54.00;50.63;;;;;;;;;;5036085;28;20028;-73
2024/01/15 05:56:19;;;;;;;49.30;46.67;;;;;;;;;;5033965;28;20424;-73
2024/01/15 05:58:45;;;;;;;48.83;45.88;;;;;;;;;;5031433;28;20068;-74
2024/01/15 06:01:10;;;;;;;43.72;41.15;;;;;;;;;;5034425;28;20037;-75
2024/01/15 06:03:35;;;;;;;42.90;39.95;;;;;;;;;;5030243;28;20072;-75
2024/01/15 06:06:01;;;;;;;39.97;37.58;;;;;;;;;;5029686;28;20061;-73
2024/01/15 06:08:27;;;;;;;35.45;33.53;;;;;;;;;;5034316;28;20061;-74
2024/01/15 06:10:53;;;;;;;36.15;34.05;;;;;;;;;;5034320;28;20028;-73
2024/01/15 06:13:18;;;;;;;32.80;31.00;;;;;;;;;;5035499;28;20029;-73
2024/01/15 06:15:43;;;;;;;35.53;33.35;;;;;;;;;;5036244;28;20052;-73
2024/01/15 06:18:10;;;;;;;35.00;32.53;;;;;;;;;;5033826;28;20075;-73
2024/01/15 06:20:35;;;;;;;32.60;30.60;;;;;;;;;;5037040;28;20670;-73
2024/01/15 06:23:01;;;;;;;33.08;31.17;;;;;;;;;;5033699;28;20041;-73
2024/01/15 06:25:26;;;;;;;36.95;34.53;;;;;;;;;;5030533;28;20518;-74
2024/01/15 06:27:51;;;;;;;32.72;30.83;;;;;;;;;;5029314;28;20043;-74
2024/01/15 06:30:17;;;;;;;34.90;32.92;;;;;;;;;;5032669;28;20038;-74
2024/01/15 06:32:42;;;;;;;33.55;31.02;;;;;;;;;;5033211;28;20106;-76
2024/01/15 06:35:10;;;;;;;35.88;32.85;;;;;;;;;;5029192;28;20067;-76
2024/01/15 06:37:35;;;;;;;32.08;30.02;;;;;;;;;;5032451;28;20025;-76
2024/01/15 06:40:01;;;;;;;32.13;30.35;;;;;;;;;;5032324;28;20033;-76
2024/01/15 06:42:26;;;;;;;35.97;33.88;;;;;;;;;;5036352;28;20037;-76
2024/01/15 06:44:51;;;;;;;37.28;34.97;;;;;;;;;;5036423;28;20047;-76
2024/01/15 06:47:17;;;;;;;38.90;36.63;;;;;;;;;;5038906;28;20581;-75
2024/01/15 06:49:43;;;;;;;40.33;38.13;;;;;;;;;;5035422;28;20583;-76
2024/01/15 06:52:08;;;;;;;41.80;39.40;;;;;;;;;;5038317;28;20057;-76
2024/01/15 06:54:33;;;;;;;44.50;42.08;;;;;;;;;;5034649;28;20451;-76
2024/01/15 06:56:59;;;;;;;45.42;42.92;;;;;;;;;;5033139;28;20044;-76
2024/01/15 06:59:24;;;;;;;46.50;43.85;;;;;;;;;;5037456;28;20071;-76
2024/01/15 07:01:49;;;;;;;43.67;41.22;;;;;;;;;;5037139;28;20033;-76
2024/01/15 07:04:15;;;;;;;41.58;39.22;;;;;;;;;;5038061;28;20054;-76
2024/01/15 07:06:40;;;;;;;41.20;38.13;;;;;;;;;;5033443;28;20463;-76
2024/01/15 07:09:06;;;;;;;38.20;36.13;;;;;;;;;;5035387;28;20049;-76
2024/01/15 07:11:31;;;;;;;39.92;37.47;;;;;;;;;;5034763;28;20057;-76
2024/01/15 07:13:57;;;;;;;40.15;37.50;;;;;;;;;;5035294;28;20044;-76
2024/01/15 07:16:22;;;;;;;37.08;35.05;;;;;;;;;;5034473;28;20556;-76
2024/01/15 07:18:47;;;;;;;38.88;36.67;;;;;;;;;;5036543;28;20041;-76
2024/01/15 07:21:13;;;;;;;35.30;33.40;;;;;;;;;;5035510;28;20041;-76
2024/01/15 07:23:38;;;;;;;39.50;36.95;;;;;;;;;;5035735;28;20102;-76
2024/01/15 07:26:05;;;;;;;37.08;34.97;;;;;;;;;;5035285;28;20060;-76
2024/01/15 07:28:30;;;;;;;35.63;33.53;;;;;;;;;;5034123;28;20052;-76
2024/01/15 07:30:56;;;;;;;38.60;36.17;;;;;;;;;;5032693;28;20029;-76
2024/01/15 07:33:21;;;;;;;36.80;34.47;;;;;;;;;;5034168;28;20033;-76
2024/01/15 07:35:47;;;;;;;36.60;34.63;;;;;;;;;;5033863;28;20041;-76
2024/01/15 07:38:12;;;;;;;38.63;35.97;;;;;;;;;;5036780;28;20026;-76
2024/01/15 07:40:37;;;;;;;36.63;34.42;;;;;;;;;;5036454;28;20044;-76
2024/01/15 07:43:03;;;;;;;36.20;34.17;;;;;;;;;;5036570;28;20524;-76
2024/01/15 07:45:30;;;;;;;36.67;34.72;;;;;;;;;;5036160;28;20041;-76
2024/01/15 07:47:55;;;;;;;38.15;36.05;;;;;;;;;;5033631;28;20575;-76
2024/01/15 07:50:21;;;;;;;39.80;37.65;;;;;;;;;;5036512;28;20112;-76
2024/01/15 07:52:46;;;;;;;41.40;38.75;;;;;;;;;;5035106;28;20429;-76
2024/01/15 07:55:11;;;;;;;42.55;40.15;;;;;;;;;;5036176;28;20131;-76
2024/01/15 07:57:37;;;;;;;44.28;41.30;;;;;;;;;;5035527;28;20039;-76
2024/01/15 08:00:05;;;;;;;43.55;40.97;;;;;;;;;;5034035;28;20064;-76
2024/01/15 08:02:31;;;;;;;46.08;43.25;;;;;;;;;;5037147;28;20703;-76
2024/01/15 08:04:58;;;;;;;46.78;44.20;;;;;;;;;;5018642;28;20560;-76
2024/01/15 08:07:25;;;;;;;47.20;44.55;;;;;;;;;;5034154;28;20045;-77
2024/01/15 08:09:50;;;;;;;50.42;47.50;;;;;;;;;;5034152;28;20089;-76
2024/01/15 08:12:16;;;;;;;51.38;48.65;;;;;;;;;;5034778;28;20041;-76
2024/01/15 08:14:41;;;;;;;55.90;52.83;;;;;;;;;;5031915;28;20068;-76
2024/01/15 08:17:06;;;;;;;55.65;52.67;;;;;;;;;;5039242;28;20021;-76
2024/01/15 08:19:32;;;;;;;58.10;55.00;;;;;;;;;;5031597;28;20383;-76
2024/01/15 08:21:57;;;;;;;57.58;54.38;;;;;;;;;;5032776;28;20067;-77
2024/01/15 08:24:22;;;;;;;58.25;54.95;;;;;;;;;;5033783;28;20029;-76
2024/01/15 08:26:48;;;;;;;63.35;59.42;;;;;;;;;;5034711;28;20524;-77
2024/01/15 08:29:13;;;;;;;60.28;57.10;;;;;;;;;;5033788;28;20068;-76
2024/01/15 08:31:38;;;;;;;67.38;63.15;;;;;;;;;;5031319;28;20079;-76
2024/01/15 08:34:04;;;;;;;65.65;62.08;;;;;;;;;;5029630;28;20053;-76
2024/01/15 08:36:30;;;;;;;67.28;63.45;;;;;;;;;;5034231;28;20041;-76
2024/01/15 08:38:56;;;;;;;62.22;58.90;;;;;;;;;;5035537;28;20045;-76
2024/01/15 08:41:21;;;;;;;64.18;60.67;;;;;;;;;;5033526;28;20032;-76
2024/01/15 08:43:47;;;;;;;69.45;65.60;;;;;;;;;;5031399;28;20382;-76
2024/01/15 08:46:13;;;;;;;66.55;63.10;;;;;;;;;;5033726;28;20418;-77
2024/01/15 08:48:39;;;;;;;72.38;68.47;;;;;;;;;;5034044;28;20378;-76
2024/01/15 08:51:05;;;;;;;72.40;68.60;;;;;;;;;;5032340;28;20098;-76
2024/01/15 08:53:30;;;;;;;67.85;64.18;;;;;;;;;;5031460;28;20128;-77
2024/01/15 08:55:55;;;;;;;71.88;66.70;;;;;;;;;;5033414;28;20458;-77
2024/01/15 08:58:21;;;;;;;72.93;69.15;;;;;;;;;;5033495;28;20455;-77
2024/01/15 09:00:46;;;;;;;69.82;66.20;;;;;;;;;;5034789;28;20094;-77
2024/01/15 09:03:11;;;;;;;71.75;68.05;;;;;;;;;;5031576;28;20045;-77
2024/01/15 09:05:37;;;;;;;71.13;67.38;;;;;;;;;;5032855;28;20091;-77
2024/01/15 09:08:03;;;;;;;70.93;67.28;;;;;;;;;;5032798;28;20099;-76
2024/01/15 09:10:28;;;;;;;76.65;72.45;;;;;;;;;;5034034;28;20471;-77
2024/01/15 09:12:53;;;;;;;70.15;66.53;;;;;;;;;;5035232;28;20525;-77
2024/01/15 09:15:19;;;;;;;68.50;64.45;;;;;;;;;;5031521;28;20041;-77
2024/01/15 09:17:46;;;;;;;71.60;67.85;;;;;;;;;;5033213;28;20029;-77
2024/01/15 09:20:11;;;;;;;70.47;66.82;;;;;;;;;;5031486;28;20029;-77
2024/01/15 09:22:42;;;;;;;71.50;67.75;;;;;;;;;;5032341;28;20564;-77
2024/01/15 09:25:09;;;;;;;67.97;64.50;;;;;;;;;;5029575;28;20029;-77
2024/01/15 09:27:35;;;;;;;70.13;66.00;;;;;;;;;;5030294;28;20102;-78
2024/01/15 09:30:00;;;;;;;76.18;72.20;;;;;;;;;;5032888;28;20045;-77
2024/01/15 09:32:25;;;;;;;74.35;70.60;;;;;;;;;;5033123;28;20044;-77
2024/01/15 09:34:51;;;;;;;74.63;70.82;;;;;;;;;;5030382;28;20463;-78
2024/01/15 09:37:16;;;;;;;70.40;66.82;;;;;;;;;;5030894;28;20060;-77
2024/01/15 09:39:41;;;;;;;69.05;65.47;;;;;;;;;;5032065;28;20413;-77
2024/01/15 09:42:07;;;;;;;72.78;69.07;;;;;;;;;;5030851;28;20072;-78
2024/01/15 09:44:34;;;;;;;75.05;71.18;;;;;;;;;;5032726;28;20472;-77
2024/01/15 09:47:00;;;;;;;75.85;71.95;;;;;;;;;;5032477;28;20029;-78
2024/01/15 09:49:26;;;;;;;78.28;74.32;;;;;;;;;;5032476;28;20116;-77
2024/01/15 09:51:52;;;;;;;151.30;143.65;;;;;;;;;;5040488;28;20035;-78
2024/01/15 09:54:17;;;;;;;71.53;67.70;;;;;;;;;;5034382;28;20455;-78
2024/01/15 09:56:49;;;;;;;76.18;72.35;;;;;;;;;;5033761;28;20048;-79
2024/01/15 09:59:18;;;;;;;74.40;70.60;;;;;;;;;;5031117;28;20048;-78
2024/01/15 10:01:45;;;;;;;69.32;65.80;;;;;;;;;;5032912;28;20068;-79
2024/01/15 10:04:14;;;;;;;70.32;66.72;;;;;;;;;;5032582;28;20039;-78
2024/01/15 10:06:43;;;;;;;66.10;62.67;;;;;;;;;;5033567;28;20049;-78
2024/01/15 10:09:08;;;;;;;77.32;73.05;;;;;;;;;;5032494;28;20144;-78
2024/01/15 10:11:34;;;;;;;69.60;66.00;;;;;;;;;;5030908;28;20513;-79
2024/01/15 10:14:00;;;;;;;65.50;62.20;;;;;;;;;;5026353;28;20044;-78
2024/01/15 10:16:26;;;;;;;65.25;61.95;;;;;;;;;;5030974;28;20048;-78
2024/01/15 10:18:51;;;;;;;66.88;63.30;;;;;;;;;;5028236;28;20383;-78
2024/01/15 10:21:16;;;;;;;62.85;59.45;;;;;;;;;;5033381;28;20497;-77
2024/01/15 10:23:42;;;;;;;59.53;56.42;;;;;;;;;;5031278;28;20052;-78
2024/01/15 10:26:07;;;;;;;57.67;54.67;;;;;;;;;;5036103;28;20048;-78
2024/01/15 10:28:33;;;;;;;57.30;54.35;;;;;;;;;;5035538;28;20026;-77
2024/01/15 10:31:00;;;;;;;60.35;57.17;;;;;;;;;;5039874;28;20044;-77
2024/01/15 10:33:26;;;;;;;55.85;52.95;;;;;;;;;;5032857;28;20067;-77
2024/01/15 10:35:58;;;;;;;52.40;49.65;;;;;;;;;;5030019;28;20068;-77
2024/01/15 10:38:24;;;;;;;53.17;50.35;;;;;;;;;;5034942;28;20043;-76
2024/01/15 10:40:56;;;;;;;55.78;52.85;;;;;;;;;;5030494;28;20050;-76
2024/01/15 10:43:22;;;;;;;56.35;53.38;;;;;;;;;;5031129;28;20686;-76
2024/01/15 10:45:49;;;;;;;56.67;53.47;;;;;;;;;;5031764;28;20626;-75
2024/01/15 10:48:17;;;;;;;54.25;51.45;;;;;;;;;;5030660;28;20033;-75
2024/01/15 10:50:44;;;;;;;54.47;51.58;;;;;;;;;;5034206;28;20037;-75
2024/01/15 10:53:11;;;;;;;54.20;51.05;;;;;;;;;;5031608;28;20467;-75
2024/01/15 10:55:39;;;;;;;57.95;54.95;;;;;;;;;;5033743;28;20063;-74
2024/01/15 10:58:05;;;;;;;57.28;54.28;;;;;;;;;;5033288;28;20090;-76
2024/01/15 11:00:33;;;;;;;60.90;57.80;;;;;;;;;;5030428;28;20116;-75
2024/01/15 11:03:01;;;;;;;56.28;53.38;;;;;;;;;;5032507;28;20490;-75
2024/01/15 11:05:27;;;;;;;57.00;54.03;;;;;;;;;;5027104;28;20055;-75
2024/01/15 11:07:55;;;;;;;57.10;54.15;;;;;;;;;;5033600;28;20491;-75
2024/01/15 11:10:48;;;;;;;56.95;53.95;;;;;;;;;;5032450;28;20036;-75
2024/01/15 11:13:22;;;;;;;56.92;53.95;;;;;;;;;;5033598;28;20086;-75
2024/01/15 11:16:00;;;;;;;61.38;58.28;;;;;;;;;;5030040;28;20051;-73
2024/01/15 11:18:27;;;;;;;57.88;54.85;;;;;;;;;;5027788;28;20033;-72
2024/01/15 11:21:17;;;;;;;58.08;55.08;;;;;;;;;;5031855;28;20045;-72
2024/01/15 11:23:57;;;;;;;58.08;55.08;;;;;;;;;;5028828;28;20091;-71
2024/01/15 11:26:36;;;;;;;50.50;47.65;;;;;;;;;;5032154;28;20045;-71
2024/01/15 11:29:06;;;;;;;48.70;46.20;;;;;;;;;;5037778;28;20401;-70
2024/01/15 11:31:38;;;;;;;50.50;47.67;;;;;;;;;;5035927;28;20033;-69
2024/01/15 11:34:03;;;;;;;45.80;43.38;;;;;;;;;;5031643;28;20041;-68
2024/01/15 11:36:50;;;;;;;45.10;42.75;;;;;;;;;;5035086;28;20038;-68
2024/01/15 11:39:28;;;;;;;49.13;46.22;;;;;;;;;;5034165;28;20024;-68
2024/01/15 11:42:03;;;;;;;45.10;42.80;;;;;;;;;;5033929;28;20148;-67
2024/01/15 11:44:30;;;;;;;43.60;41.30;;;;;;;;;;5030734;28;20090;-68
2024/01/15 11:47:02;;;;;;;44.50;42.20;;;;;;;;;;5033407;28;20037;-67
2024/01/15 11:49:40;;;;;;;45.05;42.65;;;;;;;;;;5031310;28;20605;-68
2024/01/15 11:52:06;;;;;;;43.85;41.55;;;;;;;;;;5034338;28;20041;-69
2024/01/15 11:54:37;;;;;;;43.53;41.30;;;;;;;;;;5032986;28;20065;-69
2024/01/15 11:57:08;;;;;;;45.05;42.65;;;;;;;;;;5035648;28;20030;-69
2024/01/15 11:59:33;;;;;;;45.20;42.55;;;;;;;;;;5031932;28;20132;-69
2024/01/15 12:01:58;;;;;;;42.97;40.78;;;;;;;;;;5034520;28;20120;-69
2024/01/15 12:04:24;;;;;;;45.25;42.78;;;;;;;;;;5032350;28;20041;-69
2024/01/15 12:06:49;;;;;;;48.35;45.70;;;;;;;;;;5034603;28;20032;-68
2024/01/15 12:09:14;;;;;;;46.05;43.47;;;;;;;;;;5032106;28;20116;-68
2024/01/15 12:11:45;;;;;;;45.67;43.13;;;;;;;;;;5028792;28;20058;-69
2024/01/15 12:14:10;;;;;;;45.55;43.13;;;;;;;;;;5030229;28;20408;-68
2024/01/15 12:16:35;;;;;;;45.97;43.55;;;;;;;;;;5029616;28;20112;-68
2024/01/15 12:19:01;;;;;;;47.08;44.42;;;;;;;;;;5032791;28;20038;-69
2024/01/15 12:21:26;;;;;;;47.83;45.33;;;;;;;;;;5034819;28;20044;-68
2024/01/15 12:23:52;;;;;;;45.15;42.78;;;;;;;;;;5034096;28;20038;-68
2024/01/15 12:26:18;;;;;;;44.95;42.55;;;;;;;;;;5033412;28;20033;-69
2024/01/15 12:28:43;;;;;;;46.83;44.42;;;;;;;;;;5030569;28;20324;-68
2024/01/15 12:31:08;;;;;;;47.53;44.83;;;;;;;;;;5032339;28;20097;-68
2024/01/15 12:33:34;;;;;;;45.13;42.63;;;;;;;;;;5032022;28;20033;-68
2024/01/15 12:35:59;;;;;;;48.47;45.88;;;;;;;;;;5032743;28;20034;-68
2024/01/15 12:38:25;;;;;;;45.35;42.85;;;;;;;;;;5032955;28;20410;-69
2024/01/15 12:40:50;;;;;;;46.35;43.95;;;;;;;;;;5030864;28;20120;-69
2024/01/15 12:43:17;;;;;;;45.60;43.30;;;;;;;;;;5031847;28;20060;-68
2024/01/15 12:45:43;;;;;;;50.25;47.45;;;;;;;;;;5034833;28;20613;-68
2024/01/15 12:48:08;;;;;;;43.83;41.42;;;;;;;;;;5032980;28;20112;-68
2024/01/15 12:50:35;;;;;;;47.33;44.83;;;;;;;;;;5029378;28;20045;-69
2024/01/15 12:53:01;;;;;;;47.80;45.20;;;;;;;;;;5029115;28;20280;-68
2024/01/15 12:55:26;;;;;;;45.22;42.92;;;;;;;;;;5031505;28;20462;-68
2024/01/15 12:57:54;;;;;;;45.33;42.92;;;;;;;;;;5029915;28;20112;-68
2024/01/15 13:00:20;;;;;;;47.22;44.78;;;;;;;;;;5030992;28;20079;-68
2024/01/15 13:02:45;;;;;;;46.90;44.40;;;;;;;;;;5030076;28;20069;-68
2024/01/15 13:05:11;;;;;;;45.67;43.28;;;;;;;;;;5032985;28;20367;-68
2024/01/15 13:07:37;;;;;;;45.65;43.10;;;;;;;;;;5028728;28;20123;-68
2024/01/15 13:10:03;;;;;;;47.97;44.92;;;;;;;;;;5033969;28;20105;-68
2024/01/15 13:12:28;;;;;;;43.67;41.38;;;;;;;;;;5031747;28;20037;-68
2024/01/15 13:14:53;;;;;;;43.17;40.85;;;;;;;;;;5031561;28;20052;-68
2024/01/15 13:17:20;;;;;;;45.00;42.65;;;;;;;;;;5034419;28;20075;-68
2024/01/15 13:19:46;;;;;;;43.15;40.90;;;;;;;;;;5028710;28;20033;-68
2024/01/15 13:22:13;;;;;;;40.97;38.78;;;;;;;;;;5034004;28;20052;-68
2024/01/15 13:24:39;;;;;;;43.10;40.85;;;;;;;;;;5031013;28;20048;-68
2024/01/15 13:27:05;;;;;;;42.00;39.80;;;;;;;;;;5033573;28;20514;-68
2024/01/15 13:29:31;;;;;;;43.85;41.55;;;;;;;;;;5033305;28;20041;-68
2024/01/15 13:31:58;;;;;;;41.17;38.97;;;;;;;;;;5032625;28;20767;-68
2024/01/15 13:34:24;;;;;;;42.88;40.58;;;;;;;;;;5029522;28;20132;-68
2024/01/15 13:36:49;;;;;;;43.28;40.85;;;;;;;;;;5031838;28;20414;-68
2024/01/15 13:39:19;;;;;;;41.08;38.90;;;;;;;;;;5032841;28;20107;-68
2024/01/15 13:41:46;;;;;;;41.97;39.67;;;;;;;;;;5032668;28;20091;-68
2024/01/15 13:44:11;;;;;;;41.25;39.05;;;;;;;;;;5031067;28;20501;-68
2024/01/15 13:46:38;;;;;;;42.50;40.20;;;;;;;;;;5031855;28;20140;-69
2024/01/15 13:49:04;;;;;;;40.85;38.75;;;;;;;;;;5030681;28;20577;-68
2024/01/15 13:51:31;;;;;;;41.75;39.55;;;;;;;;;;5032690;28;20029;-68
2024/01/15 13:53:56;;;;;;;42.95;40.72;;;;;;;;;;5032381;28;20055;-68
2024/01/15 13:56:22;;;;;;;41.35;39.15;;;;;;;;;;5031508;28;20344;-68
2024/01/15 13:58:48;;;;;;;40.20;38.10;;;;;;;;;;5028082;28;20181;-68
2024/01/15 14:01:13;;;;;;;42.35;40.05;;;;;;;;;;5033624;28;20371;-68
2024/01/15 14:03:38;;;;;;;44.55;42.22;;;;;;;;;;5027878;28;20741;-67
2024/01/15 14:06:08;;;;;;;42.92;40.65;;;;;;;;;;5030831;28;20039;-68
2024/01/15 14:08:34;;;;;;;43.65;41.45;;;;;;;;;;5031631;28;20040;-68
2024/01/15 14:10:59;;;;;;;44.35;42.05;;;;;;;;;;5029515;28;20033;-68